createdAt,value
2023-03-23T00:00:11.588Z,68.92
2023-03-23T00:01:11.531Z,69.23
2023-03-23T00:02:11.535Z,68.62
2023-03-23T00:03:11.517Z,68.52
2023-03-23T00:04:11.502Z,68.92
2023-03-23T00:05:11.534Z,68.79
2023-03-23T00:06:11.509Z,69.02
2023-03-23T00:07:11.488Z,68.92
2023-03-23T00:08:11.463Z,69.33
2023-03-23T00:09:11.454Z,69.02
2023-03-23T00:10:11.448Z,69.23
2023-03-23T00:11:11.434Z,69.43
2023-03-23T00:12:11.446Z,69.13
2023-03-23T00:13:11.399Z,69.33
2023-03-23T00:14:11.390Z,69.43
2023-03-23T00:15:20.521Z,69.23
2023-03-23T00:16:11.371Z,69.33
2023-03-23T00:17:11.364Z,68.38
2023-03-23T00:18:11.362Z,69.33
2023-03-23T00:19:11.342Z,69.13
2023-03-23T00:20:11.323Z,68.92
2023-03-23T00:21:11.338Z,69.23
2023-03-23T00:22:11.305Z,69.23
2023-03-23T00:23:11.320Z,69.53
2023-03-23T00:24:11.280Z,69.33
2023-03-23T00:25:11.324Z,69.13
2023-03-23T00:26:11.266Z,69.13
2023-03-23T00:27:11.246Z,69.13
2023-03-23T00:28:11.252Z,68.82
2023-03-23T00:29:11.230Z,69.13
2023-03-23T00:30:11.237Z,69.43
2023-03-23T00:31:11.217Z,69.43
2023-03-23T00:32:11.222Z,69.23
2023-03-23T00:33:11.208Z,69.53
2023-03-23T00:34:11.176Z,69.64
2023-03-23T00:35:11.175Z,69.67
2023-03-23T00:36:11.150Z,69.53
2023-03-23T00:37:11.171Z,69.57
2023-03-23T00:38:11.132Z,69.36
2023-03-23T00:39:11.145Z,69.64
2023-03-23T00:40:11.140Z,69.64
2023-03-23T00:41:11.139Z,69.53
2023-03-23T00:42:11.091Z,69.53
2023-03-23T00:43:11.090Z,69.43
2023-03-23T00:44:11.075Z,69.13
2023-03-23T00:45:11.076Z,68.52
2023-03-23T00:46:11.075Z,68.92
2023-03-23T00:47:11.041Z,69.23
2023-03-23T00:48:11.030Z,69.02
2023-03-23T00:49:11.018Z,69.13
2023-03-23T00:50:11.021Z,69.33
2023-03-23T00:51:11.007Z,69.23
2023-03-23T00:52:10.983Z,69.23
2023-03-23T00:53:10.986Z,69.36
2023-03-23T00:54:11.019Z,69.36
2023-03-23T00:55:10.993Z,69.26
2023-03-23T00:56:10.983Z,69.36
2023-03-23T00:57:10.927Z,69.46
2023-03-23T00:58:10.921Z,69.36
2023-03-23T00:59:10.898Z,69.60
2023-03-23T01:00:10.891Z,70.01
2023-03-23T01:01:11.017Z,69.49
2023-03-23T01:02:10.877Z,69.09
2023-03-23T01:03:10.875Z,70.01
2023-03-23T01:04:10.850Z,69.77
2023-03-23T01:05:10.835Z,70.10
2023-03-23T01:06:11.028Z,69.67
2023-03-23T01:07:10.812Z,69.87
2023-03-23T01:08:10.812Z,69.36
2023-03-23T01:09:10.809Z,69.19
2023-03-23T01:10:10.780Z,70.01
2023-03-23T01:11:10.995Z,70.21
2023-03-23T01:12:10.756Z,69.60
2023-03-23T01:13:10.747Z,70.01
2023-03-23T01:14:10.750Z,69.80
2023-03-23T01:15:10.737Z,69.70
2023-03-23T01:16:10.711Z,69.90
2023-03-23T01:17:10.721Z,70.10
2023-03-23T01:18:10.693Z,70.14
2023-03-23T01:19:10.680Z,69.90
2023-03-23T01:20:10.680Z,69.93
2023-03-23T01:21:10.655Z,70.34
2023-03-23T01:22:10.672Z,70.45
2023-03-23T01:23:10.639Z,70.34
2023-03-23T01:24:10.625Z,70.14
2023-03-23T01:25:10.633Z,70.24
2023-03-23T01:26:10.603Z,70.65
2023-03-23T01:27:10.631Z,70.65
2023-03-23T01:28:10.582Z,70.34
2023-03-23T01:29:10.587Z,70.34
2023-03-23T01:30:10.561Z,70.45
2023-03-23T01:31:14.619Z,70.34
2023-03-23T01:32:10.549Z,70.45
2023-03-23T01:33:10.522Z,70.34
2023-03-23T01:34:10.519Z,70.24
2023-03-23T01:35:10.528Z,70.34
2023-03-23T01:36:10.494Z,70.34
2023-03-23T01:37:10.502Z,70.55
2023-03-23T01:38:10.478Z,70.34
2023-03-23T01:39:10.513Z,70.45
2023-03-23T01:40:10.451Z,70.55
2023-03-23T01:41:10.463Z,70.48
2023-03-23T01:42:10.441Z,70.45
2023-03-23T01:43:10.456Z,71.09
2023-03-23T01:44:10.403Z,70.68
2023-03-23T01:45:10.410Z,70.65
2023-03-23T01:46:10.393Z,70.68
2023-03-23T01:47:10.393Z,70.48
2023-03-23T01:48:10.381Z,70.89
2023-03-23T01:49:10.348Z,70.48
2023-03-23T01:50:10.362Z,71.09
2023-03-23T01:51:10.327Z,70.89
2023-03-23T01:52:10.322Z,70.89
2023-03-23T01:53:10.307Z,70.99
2023-03-23T01:54:10.304Z,70.89
2023-03-23T01:55:10.298Z,70.58
2023-03-23T01:56:10.295Z,70.58
2023-03-23T01:57:10.288Z,70.58
2023-03-23T01:58:10.258Z,70.58
2023-03-23T01:59:10.240Z,70.78
2023-03-23T02:00:10.247Z,70.68
2023-03-23T02:01:10.247Z,71.09
2023-03-23T02:02:10.217Z,70.58
2023-03-23T02:03:10.207Z,70.75
2023-03-23T02:04:10.197Z,70.86
2023-03-23T02:05:10.180Z,70.65
2023-03-23T02:06:10.185Z,70.14
2023-03-23T02:07:10.165Z,70.86
2023-03-23T02:08:10.152Z,70.45
2023-03-23T02:09:10.621Z,70.55
2023-03-23T02:10:10.131Z,70.45
2023-03-23T02:11:10.119Z,70.34
2023-03-23T02:12:11.127Z,70.14
2023-03-23T02:13:12.348Z,70.55
2023-03-23T02:14:10.079Z,70.55
2023-03-23T02:15:10.062Z,70.34
2023-03-23T02:16:10.052Z,70.45
2023-03-23T02:17:10.056Z,70.45
2023-03-23T02:18:10.033Z,70.55
2023-03-23T02:19:10.024Z,70.55
2023-03-23T02:20:10.010Z,70.34
2023-03-23T02:21:10.001Z,70.34
2023-03-23T02:22:10.004Z,70.55
2023-03-23T02:23:09.983Z,70.45
2023-03-23T02:24:09.965Z,70.55
2023-03-23T02:25:09.949Z,70.45
2023-03-23T02:26:09.950Z,70.24
2023-03-23T02:27:09.957Z,70.51
2023-03-23T02:28:09.922Z,70.14
2023-03-23T02:29:09.927Z,70.04
2023-03-23T02:30:09.896Z,70.04
2023-03-23T02:31:09.897Z,70.24
2023-03-23T02:32:09.884Z,70.14
2023-03-23T02:33:09.880Z,70.45
2023-03-23T02:34:09.849Z,70.45
2023-03-23T02:35:09.836Z,70.45
2023-03-23T02:36:09.825Z,70.45
2023-03-23T02:37:09.841Z,70.14
2023-03-23T02:38:09.811Z,70.34
2023-03-23T02:39:09.828Z,70.24
2023-03-23T02:40:09.786Z,70.04
2023-03-23T02:41:09.780Z,70.04
2023-03-23T02:42:14.201Z,69.93
2023-03-23T02:43:10.760Z,69.93
2023-03-23T02:44:09.744Z,69.84
2023-03-23T02:45:09.767Z,69.93
2023-03-23T02:46:09.725Z,70.34
2023-03-23T02:47:09.717Z,70.45
2023-03-23T02:48:09.718Z,70.75
2023-03-23T02:49:09.680Z,70.68
2023-03-23T02:50:09.697Z,70.68
2023-03-23T02:51:09.659Z,71.60
2023-03-23T02:52:09.650Z,71.87
2023-03-23T02:53:09.635Z,71.60
2023-03-23T02:54:09.626Z,71.47
2023-03-23T02:55:09.629Z,71.77
2023-03-23T02:56:09.620Z,71.36
2023-03-23T02:57:09.594Z,71.56
2023-03-23T02:58:09.600Z,71.77
2023-03-23T02:59:09.570Z,72.08
2023-03-23T03:00:09.572Z,71.67
2023-03-23T03:01:09.621Z,71.47
2023-03-23T03:02:09.559Z,71.67
2023-03-23T03:03:09.536Z,71.56
2023-03-23T03:04:09.514Z,71.67
2023-03-23T03:05:09.512Z,71.87
2023-03-23T03:06:09.515Z,71.87
2023-03-23T03:07:09.484Z,71.47
2023-03-23T03:08:09.476Z,71.56
2023-03-23T03:09:09.474Z,71.97
2023-03-23T03:10:09.454Z,71.87
2023-03-23T03:11:10.468Z,72.04
2023-03-23T03:12:09.429Z,71.67
2023-03-23T03:13:09.416Z,71.67
2023-03-23T03:14:09.402Z,71.47
2023-03-23T03:15:09.396Z,71.56
2023-03-23T03:16:09.397Z,72.08
2023-03-23T03:17:09.400Z,71.97
2023-03-23T03:18:09.364Z,71.56
2023-03-23T03:19:09.360Z,71.87
2023-03-23T03:20:09.347Z,71.56
2023-03-23T03:21:09.353Z,71.67
2023-03-23T03:22:09.324Z,71.67
2023-03-23T03:23:09.302Z,71.87
2023-03-23T03:24:09.311Z,71.67
2023-03-23T03:25:17.781Z,71.47
2023-03-23T03:26:10.288Z,71.87
2023-03-23T03:27:09.266Z,71.67
2023-03-23T03:28:09.250Z,71.70
2023-03-23T03:29:09.269Z,71.67
2023-03-23T03:30:09.232Z,71.70
2023-03-23T03:31:09.226Z,71.87
2023-03-23T03:32:09.212Z,71.80
2023-03-23T03:33:09.223Z,72.11
2023-03-23T03:34:09.200Z,71.91
2023-03-23T03:35:09.197Z,72.41
2023-03-23T03:36:09.222Z,72.52
2023-03-23T03:37:09.160Z,72.31
2023-03-23T03:38:09.149Z,71.80
2023-03-23T03:39:09.134Z,71.50
2023-03-23T03:40:09.142Z,71.91
2023-03-23T03:41:09.109Z,71.97
2023-03-23T03:42:09.097Z,71.97
2023-03-23T03:43:09.089Z,71.77
2023-03-23T03:44:09.085Z,71.77
2023-03-23T03:45:09.094Z,71.87
2023-03-23T03:46:09.055Z,71.87
2023-03-23T03:47:09.048Z,72.17
2023-03-23T03:48:09.032Z,72.38
2023-03-23T03:49:09.049Z,71.94
2023-03-23T03:50:09.016Z,72.34
2023-03-23T03:51:09.027Z,72.45
2023-03-23T03:52:08.991Z,72.25
2023-03-23T03:53:08.981Z,72.38
2023-03-23T03:54:08.967Z,72.25
2023-03-23T03:55:08.961Z,72.25
2023-03-23T03:56:08.966Z,71.94
2023-03-23T03:57:08.940Z,72.34
2023-03-23T03:58:08.931Z,72.34
2023-03-23T03:59:21.832Z,72.25
2023-03-23T04:00:09.913Z,71.84
2023-03-23T04:01:08.888Z,72.25
2023-03-23T04:02:08.897Z,72.25
2023-03-23T04:03:08.864Z,71.70
2023-03-23T04:04:08.853Z,71.53
2023-03-23T04:05:08.875Z,71.43
2023-03-23T04:06:08.846Z,71.50
2023-03-23T04:07:08.841Z,71.60
2023-03-23T04:08:09.298Z,71.40
2023-03-23T04:09:09.077Z,71.60
2023-03-23T04:10:08.798Z,71.33
2023-03-23T04:11:08.774Z,71.53
2023-03-23T04:12:08.766Z,71.70
2023-03-23T04:13:08.786Z,72.31
2023-03-23T04:14:08.774Z,71.73
2023-03-23T04:15:08.755Z,72.21
2023-03-23T04:16:11.268Z,72.21
2023-03-23T04:17:08.743Z,72.31
2023-03-23T04:18:08.716Z,72.62
2023-03-23T04:19:09.862Z,73.13
2023-03-23T04:20:08.678Z,72.92
2023-03-23T04:21:08.694Z,72.01
2023-03-23T04:22:08.666Z,72.92
2023-03-23T04:23:08.645Z,72.31
2023-03-23T04:24:08.661Z,72.31
2023-03-23T04:25:09.632Z,72.21
2023-03-23T04:26:08.622Z,73.13
2023-03-23T04:27:08.607Z,72.41
2023-03-23T04:28:08.604Z,72.21
2023-03-23T04:29:08.581Z,71.94
2023-03-23T04:30:08.589Z,72.55
2023-03-23T04:31:08.565Z,72.92
2023-03-23T04:32:08.565Z,72.86
2023-03-23T04:33:08.545Z,73.36
2023-03-23T04:34:08.543Z,72.65
2023-03-23T04:35:15.847Z,72.45
2023-03-23T04:36:08.550Z,73.67
2023-03-23T04:37:08.651Z,72.62
2023-03-23T04:38:08.490Z,73.67
2023-03-23T04:39:08.484Z,73.16
2023-03-23T04:40:08.471Z,73.06
2023-03-23T04:41:08.453Z,73.47
2023-03-23T04:42:08.437Z,73.26
2023-03-23T04:43:08.464Z,73.57
2023-03-23T04:44:08.431Z,73.87
2023-03-23T04:45:08.456Z,74.18
2023-03-23T04:46:08.417Z,74.08
2023-03-23T04:47:08.394Z,74.04
2023-03-23T04:48:08.378Z,73.87
2023-03-23T04:49:08.360Z,74.04
2023-03-23T04:50:08.360Z,74.96
2023-03-23T04:51:08.354Z,74.96
2023-03-23T04:52:08.332Z,74.85
2023-03-23T04:53:08.341Z,75.16
2023-03-23T04:54:08.323Z,75.06
2023-03-23T04:55:08.306Z,75.16
2023-03-23T04:56:08.304Z,74.65
2023-03-23T04:57:08.282Z,74.99
2023-03-23T04:58:08.265Z,74.15
2023-03-23T04:59:08.260Z,73.77
2023-03-23T05:00:08.243Z,75.09
2023-03-23T05:01:09.028Z,75.33
2023-03-23T05:02:14.764Z,75.09
2023-03-23T05:03:09.225Z,75.30
2023-03-23T05:04:08.203Z,75.20
2023-03-23T05:05:08.192Z,75.20
2023-03-23T05:06:08.209Z,75.09
2023-03-23T05:07:08.163Z,75.30
2023-03-23T05:08:08.155Z,74.99
2023-03-23T05:09:08.154Z,75.20
2023-03-23T05:10:08.140Z,75.50
2023-03-23T05:11:08.141Z,75.50
2023-03-23T05:12:08.130Z,75.40
2023-03-23T05:13:08.099Z,75.30
2023-03-23T05:14:08.095Z,76.01
2023-03-23T05:15:08.076Z,76.92
2023-03-23T05:16:08.112Z,76.72
2023-03-23T05:17:08.071Z,76.62
2023-03-23T05:18:08.057Z,76.86
2023-03-23T05:19:08.057Z,77.26
2023-03-23T05:20:08.029Z,76.86
2023-03-23T05:21:08.016Z,76.90
2023-03-23T05:22:07.998Z,77.30
2023-03-23T05:23:08.013Z,77.71
2023-03-23T05:24:08.010Z,77.10
2023-03-23T05:25:07.988Z,77.71
2023-03-23T05:26:07.955Z,77.71
2023-03-23T05:27:07.954Z,78.12
2023-03-23T05:28:07.960Z,78.02
2023-03-23T05:29:07.920Z,78.93
2023-03-23T05:30:07.912Z,78.32
2023-03-23T05:31:07.905Z,79.34
2023-03-23T05:32:07.895Z,78.83
2023-03-23T05:33:07.877Z,78.83
2023-03-23T05:34:07.887Z,78.63
2023-03-23T05:35:07.857Z,78.73
2023-03-23T05:36:07.874Z,78.32
2023-03-23T05:37:11.067Z,79.34
2023-03-23T05:38:07.832Z,79.24
2023-03-23T05:39:07.813Z,79.34
2023-03-23T05:40:07.829Z,78.53
2023-03-23T05:41:07.807Z,79.64
2023-03-23T05:42:07.775Z,78.83
2023-03-23T05:43:07.768Z,79.34
2023-03-23T05:44:07.760Z,79.85
2023-03-23T05:45:07.746Z,79.44
2023-03-23T05:46:07.755Z,80.26
2023-03-23T05:47:07.715Z,80.36
2023-03-23T05:48:07.713Z,79.95
2023-03-23T05:49:07.701Z,80.40
2023-03-23T05:50:07.690Z,80.91
2023-03-23T05:51:07.690Z,81.86
2023-03-23T05:52:07.670Z,82.37
2023-03-23T05:53:07.657Z,82.78
2023-03-23T05:54:07.644Z,82.98
2023-03-23T05:55:07.641Z,83.70
2023-03-23T05:56:07.648Z,83.80
2023-03-23T05:57:07.644Z,83.59
2023-03-23T05:58:07.605Z,84.31
2023-03-23T05:59:07.586Z,85.02
2023-03-23T06:00:07.573Z,84.96
2023-03-23T06:01:07.583Z,85.33
2023-03-23T06:02:07.553Z,85.27
2023-03-23T06:03:07.574Z,85.53
2023-03-23T06:04:07.539Z,85.57
2023-03-23T06:05:07.520Z,85.02
2023-03-23T06:06:07.520Z,85.37
2023-03-23T06:07:07.525Z,86.49
2023-03-23T06:08:07.495Z,86.39
2023-03-23T06:09:08.270Z,87.20
2023-03-23T06:10:07.468Z,87.00
2023-03-23T06:11:07.479Z,87.96
2023-03-23T06:12:07.518Z,88.06
2023-03-23T06:13:07.457Z,88.26
2023-03-23T06:14:07.420Z,88.88
2023-03-23T06:15:07.421Z,88.98
2023-03-23T06:16:07.400Z,88.78
2023-03-23T06:17:07.409Z,89.04
2023-03-23T06:18:07.387Z,88.67
2023-03-23T06:19:07.382Z,88.88
2023-03-23T06:20:07.361Z,88.47
2023-03-23T06:21:07.482Z,89.18
2023-03-23T06:22:08.351Z,89.39
2023-03-23T06:23:07.347Z,89.90
2023-03-23T06:24:07.324Z,89.69
2023-03-23T06:25:07.298Z,90.00
2023-03-23T06:26:07.298Z,89.69
2023-03-23T06:27:07.302Z,89.69
2023-03-23T06:28:07.269Z,89.90
2023-03-23T06:29:07.291Z,89.59
2023-03-23T06:30:07.252Z,89.90
2023-03-23T06:31:07.237Z,90.51
2023-03-23T06:32:07.229Z,90.10
2023-03-23T06:33:07.245Z,90.20
2023-03-23T06:34:07.199Z,90.31
2023-03-23T06:35:07.250Z,90.31
2023-03-23T06:36:07.209Z,90.51
2023-03-23T06:37:07.189Z,89.90
2023-03-23T06:38:07.154Z,90.20
2023-03-23T06:39:07.146Z,90.10
2023-03-23T06:40:07.142Z,90.10
2023-03-23T06:41:07.159Z,89.90
2023-03-23T06:42:07.113Z,90.10
2023-03-23T06:43:07.120Z,89.79
2023-03-23T06:44:07.113Z,89.90
2023-03-23T06:45:07.106Z,90.31
2023-03-23T06:46:07.076Z,90.51
2023-03-23T06:47:07.071Z,90.00
2023-03-23T06:48:07.111Z,89.69
2023-03-23T06:49:07.049Z,90.20
2023-03-23T06:50:07.065Z,90.20
2023-03-23T06:51:07.020Z,90.36
2023-03-23T06:52:07.053Z,90.41
2023-03-23T06:53:07.021Z,90.00
2023-03-23T06:54:07.037Z,89.96
2023-03-23T06:55:06.980Z,89.90
2023-03-23T06:56:06.984Z,89.69
2023-03-23T06:57:06.956Z,90.16
2023-03-23T06:58:06.944Z,90.06
2023-03-23T06:59:06.940Z,90.47
2023-03-23T07:00:08.841Z,90.47
2023-03-23T07:01:06.929Z,90.47
2023-03-23T07:02:06.897Z,90.16
2023-03-23T07:03:06.903Z,90.16
2023-03-23T07:04:06.902Z,89.65
2023-03-23T07:05:06.865Z,90.67
2023-03-23T07:06:07.107Z,90.16
2023-03-23T07:07:06.851Z,90.06
2023-03-23T07:08:06.830Z,89.86
2023-03-23T07:09:06.832Z,90.26
2023-03-23T07:10:06.817Z,90.26
2023-03-23T07:11:06.819Z,90.47
2023-03-23T07:12:06.800Z,89.75
2023-03-23T07:13:06.783Z,90.36
2023-03-23T07:14:06.782Z,90.57
2023-03-23T07:15:06.750Z,89.75
2023-03-23T07:16:06.772Z,90.57
2023-03-23T07:17:06.774Z,90.67
2023-03-23T07:18:06.724Z,90.47
2023-03-23T07:19:06.712Z,90.57
2023-03-23T07:20:06.711Z,90.77
2023-03-23T07:21:06.683Z,90.10
2023-03-23T07:22:06.687Z,90.61
2023-03-23T07:23:06.665Z,91.43
2023-03-23T07:24:06.645Z,90.92
2023-03-23T07:25:06.650Z,91.12
2023-03-23T07:26:06.625Z,90.92
2023-03-23T07:27:06.638Z,91.33
2023-03-23T07:28:06.882Z,91.43
2023-03-23T07:29:06.625Z,91.53
2023-03-23T07:30:06.597Z,92.04
2023-03-23T07:31:06.578Z,92.10
2023-03-23T07:32:06.586Z,91.79
2023-03-23T07:33:06.581Z,91.89
2023-03-23T07:34:06.574Z,91.39
2023-03-23T07:35:07.365Z,91.49
2023-03-23T07:36:06.556Z,91.28
2023-03-23T07:37:06.512Z,91.39
2023-03-23T07:38:06.495Z,91.03
2023-03-23T07:39:06.487Z,90.47
2023-03-23T07:40:06.534Z,90.98
2023-03-23T07:41:06.462Z,90.67
2023-03-23T07:42:06.448Z,90.83
2023-03-23T07:43:06.448Z,91.39
2023-03-23T07:44:06.434Z,91.18
2023-03-23T07:45:06.455Z,90.98
2023-03-23T07:46:06.480Z,91.08
2023-03-23T07:47:06.416Z,91.08
2023-03-23T07:48:12.761Z,90.77
2023-03-23T07:49:07.422Z,91.14
2023-03-23T07:50:06.395Z,90.83
2023-03-23T07:51:06.373Z,91.14
2023-03-23T07:52:06.345Z,90.12
2023-03-23T07:53:06.335Z,90.01
2023-03-23T07:54:06.736Z,90.01
2023-03-23T07:55:06.328Z,89.71
2023-03-23T07:56:06.311Z,90.01
2023-03-23T07:57:06.286Z,90.12
2023-03-23T07:58:06.271Z,90.01
2023-03-23T07:59:06.322Z,90.01
2023-03-23T08:00:06.283Z,89.81
2023-03-23T08:01:06.266Z,89.61
2023-03-23T08:02:06.238Z,89.20
2023-03-23T08:03:06.218Z,89.10
2023-03-23T08:04:06.220Z,89.10
2023-03-23T08:05:06.253Z,88.79
2023-03-23T08:06:06.191Z,89.20
2023-03-23T08:07:06.187Z,89.71
2023-03-23T08:08:06.189Z,89.45
2023-03-23T08:09:06.163Z,89.55
2023-03-23T08:10:06.144Z,89.51
2023-03-23T08:11:06.146Z,89.65
2023-03-23T08:12:06.144Z,89.40
2023-03-23T08:13:06.108Z,89.40
2023-03-23T08:14:06.108Z,89.61
2023-03-23T08:15:06.089Z,89.51
2023-03-23T08:16:06.076Z,89.87
2023-03-23T08:17:06.088Z,89.00
2023-03-23T08:18:06.068Z,88.59
2023-03-23T08:19:08.793Z,89.10
2023-03-23T08:20:06.036Z,89.06
2023-03-23T08:21:06.044Z,88.34
2023-03-23T08:22:06.044Z,88.45
2023-03-23T08:23:05.999Z,88.45
2023-03-23T08:24:05.995Z,88.34
2023-03-23T08:25:05.980Z,88.59
2023-03-23T08:26:05.973Z,88.69
2023-03-23T08:27:05.950Z,88.90
2023-03-23T08:28:05.958Z,88.49
2023-03-23T08:29:05.955Z,88.69
2023-03-23T08:30:05.916Z,88.90
2023-03-23T08:31:05.915Z,88.43
2023-03-23T08:32:05.898Z,88.69
2023-03-23T08:33:05.882Z,89.00
2023-03-23T08:34:05.884Z,89.00
2023-03-23T08:35:05.886Z,88.90
2023-03-23T08:36:05.983Z,89.06
2023-03-23T08:37:05.864Z,88.85
2023-03-23T08:38:05.838Z,89.16
2023-03-23T08:39:05.818Z,89.36
2023-03-23T08:40:05.875Z,88.65
2023-03-23T08:41:05.796Z,88.04
2023-03-23T08:42:05.787Z,87.94
2023-03-23T08:43:05.774Z,87.73
2023-03-23T08:44:05.769Z,87.23
2023-03-23T08:45:05.755Z,87.84
2023-03-23T08:46:05.760Z,87.73
2023-03-23T08:47:05.726Z,87.23
2023-03-23T08:48:05.741Z,87.12
2023-03-23T08:49:05.716Z,87.43
2023-03-23T08:50:05.719Z,86.98
2023-03-23T08:51:05.691Z,87.02
2023-03-23T08:52:05.693Z,87.29
2023-03-23T08:53:05.705Z,86.98
2023-03-23T08:54:05.664Z,86.71
2023-03-23T08:55:05.643Z,86.98
2023-03-23T08:56:05.635Z,86.47
2023-03-23T08:57:05.642Z,86.88
2023-03-23T08:58:05.609Z,86.47
2023-03-23T08:59:05.604Z,87.18
2023-03-23T09:00:05.589Z,86.16
2023-03-23T09:01:05.585Z,86.57
2023-03-23T09:02:05.563Z,86.06
2023-03-23T09:03:05.548Z,86.47
2023-03-23T09:04:05.546Z,86.63
2023-03-23T09:05:05.538Z,86.49
2023-03-23T09:06:05.547Z,85.03
2023-03-23T09:07:05.557Z,84.07
2023-03-23T09:08:05.501Z,83.40
2023-03-23T09:09:05.539Z,83.60
2023-03-23T09:10:05.498Z,84.01
2023-03-23T09:11:05.472Z,83.91
2023-03-23T09:12:05.473Z,84.01
2023-03-23T09:13:05.454Z,84.66
2023-03-23T09:14:05.443Z,84.56
2023-03-23T09:15:05.430Z,84.97
2023-03-23T09:16:05.417Z,85.41
2023-03-23T09:17:05.430Z,85.31
2023-03-23T09:18:05.387Z,86.33
2023-03-23T09:19:05.373Z,86.39
2023-03-23T09:20:05.404Z,85.11
2023-03-23T09:21:05.351Z,85.06
2023-03-23T09:22:06.368Z,84.66
2023-03-23T09:23:05.333Z,84.72
2023-03-23T09:24:05.328Z,84.42
2023-03-23T09:25:05.890Z,84.62
2023-03-23T09:26:05.302Z,84.76
2023-03-23T09:27:05.301Z,84.62
2023-03-23T09:28:05.283Z,84.52
2023-03-23T09:29:05.278Z,84.52
2023-03-23T09:30:05.266Z,84.21
2023-03-23T09:31:05.270Z,84.28
2023-03-23T09:32:05.237Z,83.73
2023-03-23T09:33:05.239Z,83.08
2023-03-23T09:34:05.217Z,81.21
2023-03-23T09:35:05.204Z,81.31
2023-03-23T09:36:05.248Z,79.85
2023-03-23T09:37:05.185Z,80.12
2023-03-23T09:38:05.178Z,78.63
2023-03-23T09:39:05.162Z,77.07
2023-03-23T09:40:06.770Z,74.43
2023-03-23T09:41:05.163Z,73.69
2023-03-23T09:42:05.148Z,72.75
2023-03-23T09:43:05.122Z,71.06
2023-03-23T09:44:05.109Z,69.48
2023-03-23T09:45:05.125Z,69.79
2023-03-23T09:46:05.092Z,68.81
2023-03-23T09:47:05.091Z,68.95
2023-03-23T09:48:06.521Z,69.85
2023-03-23T09:49:05.058Z,70.26
2023-03-23T09:50:05.044Z,70.06
2023-03-23T09:51:05.031Z,69.89
2023-03-23T09:52:05.012Z,70.62
2023-03-23T09:53:05.007Z,71.13
2023-03-23T09:54:04.994Z,71.17
2023-03-23T09:55:05.012Z,71.67
2023-03-23T09:56:04.973Z,71.80
2023-03-23T09:57:04.996Z,72.51
2023-03-23T09:58:04.949Z,72.92
2023-03-23T09:59:04.937Z,72.48
2023-03-23T10:00:04.934Z,71.77
2023-03-23T10:01:04.985Z,71.70
2023-03-23T10:02:04.911Z,72.04
2023-03-23T10:03:04.911Z,72.99
2023-03-23T10:04:04.885Z,72.99
2023-03-23T10:05:04.880Z,72.72
2023-03-23T10:06:04.879Z,74.48
2023-03-23T10:07:04.855Z,74.98
2023-03-23T10:08:04.883Z,75.42
2023-03-23T10:09:04.831Z,75.12
2023-03-23T10:10:04.830Z,75.22
2023-03-23T10:11:04.826Z,75.46
2023-03-23T10:12:04.800Z,76.17
2023-03-23T10:13:04.799Z,76.91
2023-03-23T10:14:04.793Z,76.51
2023-03-23T10:15:04.765Z,76.51
2023-03-23T10:16:04.757Z,76.81
2023-03-23T10:17:04.782Z,76.61
2023-03-23T10:18:04.774Z,76.61
2023-03-23T10:19:04.719Z,77.01
2023-03-23T10:20:04.716Z,76.37
2023-03-23T10:21:04.702Z,76.91
2023-03-23T10:22:04.712Z,75.96
2023-03-23T10:23:04.682Z,75.76
2023-03-23T10:24:04.683Z,75.96
2023-03-23T10:25:04.647Z,76.47
2023-03-23T10:26:04.662Z,76.78
2023-03-23T10:27:04.638Z,75.56
2023-03-23T10:28:04.659Z,75.12
2023-03-23T10:29:04.637Z,75.96
2023-03-23T10:30:04.608Z,76.17
2023-03-23T10:31:04.594Z,75.76
2023-03-23T10:32:04.584Z,75.82
2023-03-23T10:33:04.570Z,75.62
2023-03-23T10:34:04.583Z,75.42
2023-03-23T10:35:04.545Z,74.77
2023-03-23T10:36:04.586Z,74.48
2023-03-23T10:37:04.575Z,74.57
2023-03-23T10:38:04.520Z,74.77
2023-03-23T10:39:04.506Z,74.27
2023-03-23T10:40:04.495Z,74.95
2023-03-23T10:41:04.481Z,73.93
2023-03-23T10:42:04.473Z,74.64
2023-03-23T10:43:04.480Z,74.68
2023-03-23T10:44:04.466Z,74.98
2023-03-23T10:45:04.458Z,73.86
2023-03-23T10:46:04.553Z,73.86
2023-03-23T10:47:04.466Z,74.48
2023-03-23T10:48:04.433Z,74.37
2023-03-23T10:49:04.414Z,74.37
2023-03-23T10:50:04.389Z,74.27
2023-03-23T10:51:04.380Z,73.86
2023-03-23T10:52:04.392Z,74.68
2023-03-23T10:53:06.496Z,73.90
2023-03-23T10:54:04.390Z,74.30
2023-03-23T10:55:04.338Z,74.21
2023-03-23T10:56:04.326Z,74.61
2023-03-23T10:57:04.325Z,74.30
2023-03-23T10:58:04.373Z,74.30
2023-03-23T10:59:04.339Z,74.51
2023-03-23T11:00:04.394Z,74.81
2023-03-23T11:01:04.289Z,73.80
2023-03-23T11:02:04.250Z,73.90
2023-03-23T11:03:05.815Z,74.10
2023-03-23T11:04:04.248Z,73.70
2023-03-23T11:05:09.383Z,73.93
2023-03-23T11:06:05.207Z,74.00
2023-03-23T11:07:04.207Z,73.33
2023-03-23T11:08:04.187Z,73.39
2023-03-23T11:09:04.195Z,73.60
2023-03-23T11:10:04.162Z,73.80
2023-03-23T11:11:04.179Z,73.70
2023-03-23T11:12:04.148Z,74.00
2023-03-23T11:13:04.140Z,73.09
2023-03-23T11:14:04.124Z,73.60
2023-03-23T11:15:04.115Z,73.19
2023-03-23T11:16:04.117Z,73.70
2023-03-23T11:17:13.927Z,73.09
2023-03-23T11:18:05.096Z,73.09
2023-03-23T11:19:04.076Z,73.16
2023-03-23T11:20:04.077Z,73.29
2023-03-23T11:21:04.061Z,73.09
2023-03-23T11:22:04.043Z,73.19
2023-03-23T11:23:04.034Z,72.89
2023-03-23T11:24:09.975Z,73.39
2023-03-23T11:25:05.063Z,72.78
2023-03-23T11:26:04.016Z,72.24
2023-03-23T11:27:04.004Z,72.48
2023-03-23T11:28:03.985Z,72.65
2023-03-23T11:29:03.976Z,71.94
2023-03-23T11:30:03.960Z,72.24
2023-03-23T11:31:03.973Z,72.24
2023-03-23T11:32:03.937Z,71.44
2023-03-23T11:33:03.943Z,71.53
2023-03-23T11:34:06.313Z,71.33
2023-03-23T11:35:15.642Z,71.09
2023-03-23T11:36:04.918Z,71.13
2023-03-23T11:37:03.881Z,71.09
2023-03-23T11:38:03.862Z,71.40
2023-03-23T11:39:03.853Z,71.30
2023-03-23T11:40:03.868Z,71.20
2023-03-23T11:41:03.868Z,71.09
2023-03-23T11:42:09.286Z,70.29
2023-03-23T11:43:04.806Z,70.45
2023-03-23T11:44:03.802Z,70.25
2023-03-23T11:45:03.801Z,70.25
2023-03-23T11:46:03.792Z,69.95
2023-03-23T11:47:03.761Z,69.98
2023-03-23T11:48:03.756Z,70.29
2023-03-23T11:49:10.235Z,70.49
2023-03-23T11:50:04.747Z,69.98
2023-03-23T11:51:03.729Z,70.25
2023-03-23T11:52:03.736Z,70.05
2023-03-23T11:53:03.708Z,69.65
2023-03-23T11:54:03.715Z,69.85
2023-03-23T11:55:03.690Z,70.05
2023-03-23T11:56:03.710Z,69.95
2023-03-23T11:57:03.657Z,70.15
2023-03-23T11:58:03.669Z,70.02
2023-03-23T11:59:03.657Z,69.51
2023-03-23T12:00:03.626Z,69.44
2023-03-23T12:01:03.607Z,69.65
2023-03-23T12:02:15.020Z,69.44
2023-03-23T12:03:04.617Z,69.81
2023-03-23T12:04:03.588Z,69.48
2023-03-23T12:05:03.605Z,69.18
2023-03-23T12:06:03.559Z,68.77
2023-03-23T12:07:03.589Z,69.10
2023-03-23T12:08:03.535Z,68.47
2023-03-23T12:09:03.532Z,68.90
2023-03-23T12:10:03.528Z,68.90
2023-03-23T12:11:03.897Z,68.26
2023-03-23T12:12:03.495Z,68.67
2023-03-23T12:13:03.472Z,68.50
2023-03-23T12:14:03.482Z,68.57
2023-03-23T12:15:03.480Z,68.47
2023-03-23T12:16:03.451Z,68.70
2023-03-23T12:17:03.451Z,68.40
2023-03-23T12:18:03.415Z,68.70
2023-03-23T12:19:03.418Z,68.19
2023-03-23T12:20:03.408Z,68.23
2023-03-23T12:21:03.457Z,68.33
2023-03-23T12:22:03.369Z,68.40
2023-03-23T12:23:03.372Z,68.80
2023-03-23T12:24:04.011Z,68.60
2023-03-23T12:25:03.362Z,68.50
2023-03-23T12:26:03.336Z,67.89
2023-03-23T12:27:03.349Z,68.10
2023-03-23T12:28:03.309Z,67.99
2023-03-23T12:29:03.298Z,68.60
2023-03-23T12:30:03.286Z,68.87
2023-03-23T12:31:03.304Z,68.57
2023-03-23T12:32:03.291Z,68.37
2023-03-23T12:33:03.260Z,68.26
2023-03-23T12:34:03.242Z,68.16
2023-03-23T12:35:03.231Z,68.10
2023-03-23T12:36:03.316Z,68.06
2023-03-23T12:37:03.250Z,67.86
2023-03-23T12:38:03.232Z,67.18
2023-03-23T12:39:03.191Z,68.30
2023-03-23T12:40:03.192Z,68.13
2023-03-23T12:41:03.172Z,68.23
2023-03-23T12:42:03.173Z,68.02
2023-03-23T12:43:03.148Z,67.89
2023-03-23T12:44:03.146Z,67.93
2023-03-23T12:45:03.117Z,68.02
2023-03-23T12:46:03.121Z,68.02
2023-03-23T12:47:03.127Z,68.13
2023-03-23T12:48:03.133Z,67.89
2023-03-23T12:49:03.069Z,67.29
2023-03-23T12:50:03.077Z,67.22
2023-03-23T12:51:03.051Z,67.62
2023-03-23T12:52:03.046Z,68.13